createdAt,value
2023-01-31T00:00:12.483Z,35.30
2023-01-31T00:02:42.814Z,33.00
2023-01-31T00:05:10.794Z,32.50
2023-01-31T00:07:38.752Z,29.80
2023-01-31T00:10:07.525Z,34.00
2023-01-31T00:12:35.978Z,33.50
2023-01-31T00:15:04.740Z,31.70
2023-01-31T00:17:33.034Z,38.20
2023-01-31T00:20:01.056Z,33.90
2023-01-31T00:22:29.632Z,34.00
2023-01-31T00:24:57.793Z,34.30
2023-01-31T00:27:25.830Z,34.10
2023-01-31T00:29:54.657Z,27.80
2023-01-31T00:32:22.799Z,32.50
2023-01-31T00:34:55.516Z,29.00
2023-01-31T00:37:23.929Z,33.50
2023-01-31T00:39:53.333Z,31.20
2023-01-31T00:42:21.273Z,35.40
2023-01-31T00:44:49.602Z,30.20
2023-01-31T00:47:18.849Z,32.50
2023-01-31T00:49:47.089Z,34.70
2023-01-31T00:52:15.239Z,32.30
2023-01-31T00:54:43.229Z,32.70
2023-01-31T00:57:11.261Z,34.20
2023-01-31T00:59:39.296Z,33.40
2023-01-31T01:02:07.492Z,32.60
2023-01-31T01:04:35.608Z,30.10
2023-01-31T01:07:03.643Z,30.30
2023-01-31T01:09:34.954Z,32.10
2023-01-31T01:12:03.597Z,30.80
2023-01-31T01:14:32.138Z,32.70
2023-01-31T01:17:00.765Z,31.30
2023-01-31T01:19:28.810Z,31.60
2023-01-31T01:21:56.888Z,31.80
2023-01-31T01:24:25.540Z,33.00
2023-01-31T01:26:53.638Z,26.70
2023-01-31T01:29:21.780Z,32.30
2023-01-31T01:31:51.163Z,32.80
2023-01-31T01:34:20.175Z,29.00
2023-01-31T01:36:48.306Z,28.00
2023-01-31T01:39:18.288Z,28.20
2023-01-31T01:41:47.052Z,35.20
2023-01-31T01:44:42.557Z,32.70
2023-01-31T01:47:50.144Z,31.70
2023-01-31T01:50:27.618Z,32.90
2023-01-31T01:53:01.401Z,32.40
2023-01-31T01:55:42.931Z,27.00
2023-01-31T01:58:19.518Z,32.20
2023-01-31T02:00:47.709Z,27.70
2023-01-31T02:03:15.893Z,29.60
2023-01-31T02:05:49.538Z,31.60
2023-01-31T02:08:19.382Z,26.70
2023-01-31T02:10:56.707Z,33.00
2023-01-31T02:13:24.929Z,32.40
2023-01-31T02:15:53.172Z,31.80
2023-01-31T02:18:22.424Z,29.50
2023-01-31T02:21:30.183Z,33.70
2023-01-31T02:24:13.573Z,34.10
2023-01-31T02:27:10.992Z,35.20
2023-01-31T02:30:13.972Z,36.70
2023-01-31T02:32:49.753Z,38.20
2023-01-31T02:35:39.395Z,38.70
2023-01-31T02:38:31.983Z,34.70
2023-01-31T02:41:10.252Z,41.40
2023-01-31T02:44:09.165Z,34.30
2023-01-31T02:46:55.909Z,31.50
2023-01-31T02:49:37.377Z,33.90
2023-01-31T02:52:35.540Z,34.20
2023-01-31T02:55:43.364Z,33.60
2023-01-31T02:58:12.668Z,31.80
2023-01-31T03:00:42.237Z,31.00
2023-01-31T03:03:32.012Z,32.10
2023-01-31T03:06:23.454Z,28.30
2023-01-31T03:09:05.900Z,33.70
2023-01-31T03:11:55.759Z,34.70
2023-01-31T03:14:44.477Z,32.30
2023-01-31T03:17:33.999Z,29.00
2023-01-31T03:20:08.570Z,34.00
2023-01-31T03:22:46.171Z,38.20
2023-01-31T03:25:15.509Z,32.20
2023-01-31T03:27:49.165Z,32.50
2023-01-31T03:30:21.302Z,36.90
2023-01-31T03:32:56.192Z,42.90
2023-01-31T03:35:26.099Z,49.50
2023-01-31T03:38:02.213Z,42.30
2023-01-31T03:40:37.309Z,47.70
2023-01-31T03:43:09.562Z,38.00
2023-01-31T03:45:42.960Z,39.00
2023-01-31T03:48:15.238Z,37.70
2023-01-31T03:50:47.579Z,37.90
2023-01-31T03:53:36.988Z,38.80
2023-01-31T03:56:09.656Z,33.70
2023-01-31T03:58:41.275Z,39.80
2023-01-31T04:01:09.495Z,41.90
2023-01-31T04:03:42.760Z,38.10
2023-01-31T04:06:10.947Z,42.40
2023-01-31T04:11:11.744Z,38.80
2023-01-31T04:13:40.119Z,39.90
2023-01-31T04:16:08.279Z,37.50
2023-01-31T04:18:38.079Z,41.20
2023-01-31T04:21:06.698Z,38.50
2023-01-31T04:23:34.684Z,41.20
2023-01-31T04:26:03.532Z,42.50
2023-01-31T04:28:32.126Z,36.20
2023-01-31T04:31:00.374Z,44.60
2023-01-31T04:33:30.496Z,44.10
2023-01-31T04:35:58.883Z,41.30
2023-01-31T04:38:26.950Z,40.40
2023-01-31T04:40:55.635Z,39.50
2023-01-31T04:43:24.212Z,38.20
2023-01-31T04:45:52.263Z,41.50
2023-01-31T04:48:20.342Z,44.90
2023-01-31T04:50:49.088Z,46.00
2023-01-31T04:53:17.016Z,39.60
2023-01-31T04:55:46.845Z,44.40
2023-01-31T04:58:14.828Z,42.50
2023-01-31T05:00:45.092Z,41.10
2023-01-31T05:03:13.418Z,41.40
2023-01-31T05:05:41.672Z,43.30
2023-01-31T05:08:09.842Z,32.90
2023-01-31T05:10:37.871Z,43.90
2023-01-31T05:13:06.350Z,48.70
2023-01-31T05:15:34.440Z,43.50
2023-01-31T05:18:03.077Z,43.90
2023-01-31T05:20:33.903Z,44.90
2023-01-31T05:23:02.677Z,42.90
2023-01-31T05:25:31.625Z,44.80
2023-01-31T05:28:00.359Z,42.60
2023-01-31T05:30:28.440Z,42.60
2023-01-31T05:32:57.219Z,49.40
2023-01-31T05:35:25.490Z,47.10
2023-01-31T05:37:54.580Z,52.70
2023-01-31T05:40:23.688Z,42.10
2023-01-31T08:26:30.681Z,43.20
2023-01-31T08:33:57.531Z,44.90
2023-01-31T08:36:31.937Z,47.70
2023-01-31T08:39:00.369Z,59.60
2023-01-31T08:41:29.388Z,51.30
2023-01-31T08:43:58.907Z,57.80
2023-01-31T08:46:30.805Z,52.60
2023-01-31T08:49:04.635Z,50.60
2023-01-31T08:51:34.177Z,53.70
2023-01-31T08:54:02.183Z,49.20
2023-01-31T08:56:30.448Z,48.50
2023-01-31T08:58:58.597Z,47.70
2023-01-31T09:01:26.773Z,36.20
2023-01-31T09:03:57.361Z,50.90
2023-01-31T09:06:27.675Z,46.50
2023-01-31T09:08:59.912Z,52.80
2023-01-31T09:11:29.083Z,54.40
2023-01-31T09:13:57.977Z,49.30
2023-01-31T09:16:26.328Z,48.40
2023-01-31T09:18:56.041Z,47.30
2023-01-31T09:21:24.382Z,50.90
2023-01-31T09:23:57.237Z,45.30
2023-01-31T09:26:25.406Z,45.60
2023-01-31T09:28:53.650Z,44.50
2023-01-31T09:31:22.152Z,46.10
2023-01-31T09:33:50.446Z,44.10
2023-01-31T09:36:20.417Z,40.00
2023-01-31T09:38:48.715Z,47.10
2023-01-31T09:41:17.480Z,45.60
2023-01-31T09:43:49.818Z,44.90
2023-01-31T09:46:19.547Z,46.70
2023-01-31T09:48:51.226Z,47.30
2023-01-31T09:51:19.364Z,45.70
2023-01-31T09:53:47.451Z,48.70
2023-01-31T09:56:34.673Z,41.70
2023-01-31T09:59:12.809Z,49.90
2023-01-31T10:01:47.913Z,43.00
2023-01-31T10:04:21.989Z,43.30
2023-01-31T10:07:01.644Z,46.90
2023-01-31T10:09:35.981Z,45.50
2023-01-31T10:12:06.468Z,43.70
2023-01-31T10:14:36.625Z,50.20
2023-01-31T10:18:07.858Z,45.70
2023-01-31T10:20:39.092Z,43.60
2023-01-31T10:23:15.131Z,46.40
2023-01-31T10:25:46.260Z,51.10
2023-01-31T10:28:30.396Z,49.30
2023-01-31T10:31:15.700Z,48.20
2023-01-31T10:33:49.807Z,43.40
2023-01-31T10:36:29.221Z,42.00
2023-01-31T10:39:07.968Z,42.40
2023-01-31T10:41:48.121Z,42.00
2023-01-31T10:44:31.389Z,52.10
2023-01-31T10:46:59.514Z,47.50
2023-01-31T10:49:27.666Z,48.00
2023-01-31T10:52:18.055Z,49.80
2023-01-31T10:54:55.194Z,49.30
2023-01-31T10:57:23.250Z,49.10
2023-01-31T10:59:55.347Z,47.00
2023-01-31T11:02:25.240Z,47.80
2023-01-31T11:04:57.971Z,50.40
2023-01-31T11:07:29.734Z,51.20
2023-01-31T11:09:58.630Z,48.30
2023-01-31T11:12:43.938Z,48.40
2023-01-31T11:15:17.677Z,47.20
2023-01-31T11:17:46.474Z,47.40
2023-01-31T11:20:24.443Z,49.20
2023-01-31T11:22:53.548Z,48.60
2023-01-31T11:25:22.674Z,47.10
2023-01-31T11:27:53.091Z,49.90
2023-01-31T11:30:36.330Z,46.30
2023-01-31T11:33:05.175Z,50.30
2023-01-31T11:35:34.550Z,48.10
2023-01-31T11:38:09.689Z,50.60
2023-01-31T11:40:38.756Z,48.00
2023-01-31T11:43:23.866Z,52.50
2023-01-31T11:45:59.403Z,52.30
2023-01-31T11:48:41.161Z,48.90
2023-01-31T11:51:09.111Z,49.40
2023-01-31T11:53:43.517Z,53.40
2023-01-31T11:56:23.125Z,50.30
2023-01-31T11:58:53.828Z,47.90
2023-01-31T12:01:23.113Z,53.50
2023-01-31T12:04:02.676Z,47.50
2023-01-31T12:06:39.270Z,52.10
2023-01-31T14:27:57.851Z,56.00
2023-01-31T14:30:27.369Z,57.10
2023-01-31T14:33:13.799Z,60.20
2023-01-31T14:36:19.721Z,68.40
2023-01-31T14:39:01.796Z,64.20
2023-01-31T14:41:33.071Z,63.10
2023-01-31T14:44:19.438Z,65.40
2023-01-31T14:47:18.444Z,59.50
2023-01-31T14:49:55.775Z,58.40
2023-01-31T14:52:48.419Z,62.70
2023-01-31T14:55:32.100Z,59.70
2023-01-31T14:58:01.413Z,52.50
2023-01-31T15:00:34.885Z,60.00
2023-01-31T15:03:26.584Z,60.50
2023-01-31T15:05:57.201Z,62.90
2023-01-31T15:08:25.190Z,64.80
2023-01-31T15:11:02.154Z,45.90
2023-01-31T15:13:38.301Z,65.50
2023-01-31T15:16:30.658Z,64.90
2023-01-31T15:19:08.545Z,64.90
2023-01-31T15:21:48.048Z,64.70
2023-01-31T15:24:26.187Z,78.70
2023-01-31T15:26:54.585Z,67.10
2023-01-31T15:29:25.074Z,65.10
2023-01-31T15:31:55.479Z,62.80
2023-01-31T15:34:27.747Z,65.00
2023-01-31T15:37:06.499Z,64.90
2023-01-31T15:39:44.217Z,69.70
2023-01-31T15:42:29.492Z,67.70
2023-01-31T15:45:22.011Z,70.20
2023-01-31T15:48:01.260Z,67.40
2023-01-31T15:50:33.332Z,67.90
2023-01-31T15:53:06.518Z,71.40
2023-01-31T15:55:35.480Z,62.90
2023-01-31T15:58:06.999Z,64.60
2023-01-31T16:00:37.395Z,71.70
2023-01-31T16:03:07.916Z,70.60
2023-01-31T16:05:37.913Z,68.10
2023-01-31T16:08:20.342Z,64.60
2023-01-31T16:10:48.618Z,69.80
2023-01-31T16:13:16.692Z,64.10
2023-01-31T16:15:44.742Z,69.40
2023-01-31T16:18:12.947Z,66.60
2023-01-31T16:20:51.219Z,63.70
2023-01-31T16:23:33.429Z,63.80
2023-01-31T16:26:08.994Z,69.70
2023-01-31T16:28:45.883Z,67.40
2023-01-31T16:31:16.586Z,71.30
2023-01-31T16:34:00.105Z,69.30
2023-01-31T16:36:49.111Z,68.90
2023-01-31T16:39:24.281Z,68.90
2023-01-31T16:41:52.652Z,75.10
2023-01-31T16:44:22.114Z,68.50
2023-01-31T16:46:50.695Z,72.40
2023-01-31T16:49:29.935Z,68.40
2023-01-31T16:52:24.764Z,68.30
2023-01-31T16:54:54.088Z,72.90
2023-01-31T16:57:23.127Z,74.10
2023-01-31T16:59:54.506Z,76.50
2023-01-31T17:02:25.761Z,74.90
2023-01-31T17:04:56.320Z,76.70
2023-01-31T17:07:27.182Z,76.70
2023-01-31T17:09:57.544Z,76.40
2023-01-31T17:12:29.803Z,71.20
2023-01-31T17:15:01.621Z,78.40
2023-01-31T17:17:34.808Z,66.60
2023-01-31T17:20:03.082Z,72.20
2023-01-31T17:22:32.319Z,71.40
2023-01-31T17:25:00.448Z,77.10
2023-01-31T17:27:28.451Z,75.90
2023-01-31T17:29:56.559Z,77.10
2023-01-31T17:32:24.539Z,75.70
2023-01-31T17:34:52.726Z,59.70
2023-01-31T17:37:31.193Z,75.10
2023-01-31T17:42:27.839Z,78.00
2023-01-31T17:44:56.057Z,76.70
2023-01-31T17:47:25.316Z,75.10
2023-01-31T17:50:00.018Z,84.70
2023-01-31T17:52:28.207Z,83.40
2023-01-31T17:54:56.295Z,85.10
2023-01-31T17:57:24.458Z,74.30
2023-01-31T17:59:52.528Z,84.80
2023-01-31T18:02:20.796Z,77.10
2023-01-31T18:04:48.806Z,66.50
2023-01-31T18:07:17.062Z,78.90
2023-01-31T20:20:09.317Z,89.10
2023-01-31T20:22:36.734Z,87.30
2023-01-31T20:25:04.745Z,91.10
2023-01-31T20:27:34.756Z,86.50
2023-01-31T20:30:01.807Z,89.00
2023-01-31T20:32:29.189Z,86.80
2023-01-31T20:34:56.608Z,86.70
2023-01-31T20:37:23.863Z,83.00
2023-01-31T20:39:51.113Z,88.70
2023-01-31T20:42:17.752Z,83.00
2023-01-31T20:44:44.333Z,77.40
2023-01-31T20:47:10.992Z,79.20
2023-01-31T20:49:37.766Z,79.80
2023-01-31T20:52:04.888Z,83.90
2023-01-31T20:54:33.396Z,78.20
2023-01-31T20:57:00.242Z,83.30
2023-01-31T20:59:27.801Z,82.60
2023-01-31T21:01:54.448Z,78.10
2023-01-31T21:04:21.008Z,77.20
2023-01-31T21:06:48.915Z,78.60
2023-01-31T21:09:15.770Z,82.20
2023-01-31T21:11:42.641Z,80.10
2023-01-31T21:14:09.569Z,77.30
2023-01-31T21:16:36.169Z,83.00
2023-01-31T21:19:02.793Z,78.70
2023-01-31T21:21:29.810Z,78.80
2023-01-31T21:23:56.777Z,79.00
2023-01-31T21:26:25.681Z,90.80
2023-01-31T21:28:53.770Z,80.40
2023-01-31T21:31:20.596Z,84.20
2023-01-31T21:33:49.988Z,75.90
2023-01-31T21:36:18.547Z,79.30
2023-01-31T21:38:45.231Z,75.20
2023-01-31T21:41:30.872Z,79.30
2023-01-31T21:43:57.645Z,76.70
2023-01-31T21:46:24.893Z,80.20
2023-01-31T21:48:51.991Z,82.40
2023-01-31T21:51:19.909Z,81.40
2023-01-31T21:53:46.445Z,79.20
2023-01-31T21:56:20.213Z,80.70
2023-01-31T21:58:46.991Z,82.60
2023-01-31T22:01:20.879Z,84.30
2023-01-31T22:03:48.975Z,91.30
2023-01-31T22:06:20.429Z,83.80
2023-01-31T22:08:55.623Z,82.30
2023-01-31T22:11:22.481Z,85.40
2023-01-31T22:13:52.198Z,83.20
2023-01-31T22:16:20.885Z,83.00
2023-01-31T22:18:47.693Z,87.10
2023-01-31T22:21:19.077Z,80.60
2023-01-31T22:23:47.482Z,87.70
2023-01-31T22:26:19.121Z,81.10
2023-01-31T22:28:46.422Z,85.50
2023-01-31T22:31:13.181Z,81.20
2023-01-31T22:33:40.890Z,86.40
2023-01-31T22:36:08.954Z,80.40
2023-01-31T22:38:35.839Z,87.80
2023-01-31T22:41:04.295Z,91.00
2023-01-31T22:43:35.873Z,85.70
2023-01-31T22:46:02.984Z,91.80
2023-01-31T22:48:29.869Z,92.00
2023-01-31T22:50:57.954Z,89.00
2023-01-31T22:53:25.091Z,84.50
2023-01-31T22:55:52.393Z,81.60
2023-01-31T22:58:19.489Z,83.90
2023-01-31T23:00:48.339Z,84.40
2023-01-31T23:03:15.001Z,77.60
2023-01-31T23:05:44.582Z,84.50
2023-01-31T23:08:12.566Z,82.20
2023-01-31T23:10:39.948Z,80.40
2023-01-31T23:13:06.681Z,88.50
2023-01-31T23:15:33.769Z,92.10
2023-01-31T23:18:20.816Z,85.00
2023-01-31T23:20:47.632Z,76.70
2023-01-31T23:23:14.212Z,83.50
2023-01-31T23:25:40.967Z,73.60
2023-01-31T23:28:07.607Z,77.10
2023-01-31T23:30:34.542Z,83.80
2023-01-31T23:33:02.059Z,73.10
2023-01-31T23:35:31.478Z,75.40
2023-01-31T23:37:58.151Z,84.40
2023-01-31T23:40:24.725Z,81.40
2023-01-31T23:42:52.309Z,83.60
2023-01-31T23:45:19.295Z,82.00
2023-01-31T23:47:45.956Z,79.00
2023-01-31T23:50:12.681Z,78.30
2023-01-31T23:52:42.196Z,71.60
2023-01-31T23:55:09.583Z,74.70
2023-01-31T23:57:36.364Z,75.80
